createdAt,value
2022-07-26T00:03:16.807Z,66.34
2022-07-26T00:08:22.893Z,66.37
2022-07-26T00:13:30.293Z,66.17
2022-07-26T00:18:36.179Z,66.55
2022-07-26T00:23:42.049Z,66.35
2022-07-26T00:28:47.898Z,66.49
2022-07-26T00:33:53.740Z,66.21
2022-07-26T00:38:59.672Z,66.33
2022-07-26T00:44:06.027Z,65.97
2022-07-26T00:49:13.041Z,65.85
2022-07-26T00:54:19.513Z,65.68
2022-07-26T00:59:25.368Z,65.80
2022-07-26T01:04:31.216Z,65.72
2022-07-26T01:09:37.305Z,65.99
2022-07-26T01:14:45.518Z,66.05
2022-07-26T01:19:51.477Z,65.98
2022-07-26T01:24:57.320Z,66.10
2022-07-26T01:30:03.914Z,66.15
2022-07-26T01:35:10.861Z,66.60
2022-07-26T01:40:17.059Z,66.91
2022-07-26T01:45:22.814Z,67.05
2022-07-26T01:50:29.061Z,67.52
2022-07-26T01:55:34.773Z,68.03
2022-07-26T02:00:40.967Z,68.30
2022-07-26T02:05:46.838Z,68.87
2022-07-26T02:11:03.556Z,69.89
2022-07-26T02:16:14.151Z,70.47
2022-07-26T02:21:19.884Z,70.94
2022-07-26T02:26:25.803Z,71.34
2022-07-26T02:31:32.208Z,71.87
2022-07-26T02:36:38.455Z,72.18
2022-07-26T02:41:44.565Z,72.52
2022-07-26T02:46:50.584Z,72.53
2022-07-26T02:51:56.891Z,72.57
2022-07-26T02:57:02.870Z,72.64
2022-07-26T03:02:08.898Z,72.41
2022-07-26T03:07:14.830Z,72.34
2022-07-26T03:12:20.731Z,72.16
2022-07-26T03:17:26.906Z,71.69
2022-07-26T03:22:33.387Z,71.53
2022-07-26T03:27:39.290Z,71.83
2022-07-26T03:32:45.107Z,71.77
2022-07-26T03:37:51.337Z,71.38
2022-07-26T03:42:57.343Z,71.58
2022-07-26T03:48:04.074Z,71.75
2022-07-26T03:53:09.935Z,71.83
2022-07-26T03:58:17.162Z,71.10
2022-07-26T04:03:23.020Z,70.35
2022-07-26T04:08:28.822Z,70.07
2022-07-26T04:13:35.476Z,69.02
2022-07-26T04:18:42.594Z,68.67
2022-07-26T04:23:51.363Z,67.85
2022-07-26T04:28:59.191Z,66.56
2022-07-26T04:34:05.581Z,64.99
2022-07-26T04:39:11.683Z,62.30
2022-07-26T04:44:17.834Z,61.60
2022-07-26T04:49:24.179Z,61.29
2022-07-26T04:54:30.061Z,60.94
2022-07-26T04:59:35.953Z,60.59
2022-07-26T05:04:42.702Z,59.52
2022-07-26T05:09:48.596Z,55.73
2022-07-26T05:14:54.766Z,49.82
2022-07-26T05:20:03.177Z,45.21
2022-07-26T05:25:10.235Z,40.88
2022-07-26T05:30:16.336Z,37.17
2022-07-26T05:35:22.487Z,34.81
2022-07-26T05:40:28.452Z,32.48
2022-07-26T05:45:34.336Z,30.74
2022-07-26T05:50:40.632Z,31.12
2022-07-26T05:55:46.485Z,31.69
2022-07-26T06:00:52.521Z,32.00
2022-07-26T06:05:59.245Z,31.63
2022-07-26T06:11:05.819Z,31.71
2022-07-26T06:16:11.564Z,31.95
2022-07-26T06:21:18.277Z,30.72
2022-07-26T06:26:37.926Z,30.55
2022-07-26T06:31:44.539Z,28.89
2022-07-26T06:36:50.336Z,28.34
2022-07-26T06:41:56.262Z,28.65
2022-07-26T06:47:02.884Z,27.77
2022-07-26T06:52:08.789Z,26.35
2022-07-26T06:57:14.699Z,26.42
2022-07-26T07:02:21.527Z,24.66
2022-07-26T07:07:28.554Z,24.30
2022-07-26T07:12:35.167Z,23.16
2022-07-26T07:17:43.099Z,21.93
2022-07-26T07:22:49.039Z,21.98
2022-07-26T07:27:54.820Z,23.23
2022-07-26T07:33:00.876Z,24.04
2022-07-26T07:38:10.201Z,24.34
2022-07-26T07:43:16.171Z,23.62
2022-07-26T07:48:22.103Z,24.04
2022-07-26T07:53:28.029Z,24.75
2022-07-26T07:58:36.459Z,26.27
2022-07-26T08:03:42.689Z,26.63
2022-07-26T08:08:48.911Z,26.41
2022-07-26T08:13:57.739Z,27.13
2022-07-26T08:19:03.933Z,27.93
2022-07-26T08:24:10.920Z,29.88
2022-07-26T08:29:17.065Z,31.15
2022-07-26T08:34:23.048Z,32.75
2022-07-26T08:39:28.836Z,34.08
2022-07-26T08:44:35.747Z,34.97
2022-07-26T08:49:42.156Z,34.77
2022-07-26T08:54:49.883Z,34.93
2022-07-26T09:00:15.980Z,35.14
2022-07-26T09:05:26.555Z,33.51
2022-07-26T09:10:39.070Z,32.91
2022-07-26T09:15:45.498Z,32.80
2022-07-26T09:20:51.644Z,32.22
2022-07-26T09:26:06.397Z,33.08
2022-07-26T09:31:12.783Z,34.05
2022-07-26T09:36:19.611Z,33.71
2022-07-26T09:41:28.141Z,32.66
2022-07-26T09:46:35.339Z,32.47
2022-07-26T09:51:43.983Z,32.36
2022-07-26T09:56:52.391Z,31.12
2022-07-26T10:01:59.743Z,31.19
2022-07-26T10:07:06.315Z,31.13
2022-07-26T10:12:16.025Z,31.41
2022-07-26T10:17:49.576Z,32.35
2022-07-26T10:22:55.931Z,31.71
2022-07-26T10:28:02.071Z,30.57
2022-07-26T10:33:19.678Z,32.20
2022-07-26T10:38:27.370Z,31.90
2022-07-26T10:43:42.565Z,32.82
2022-07-26T10:48:59.425Z,34.14
2022-07-26T10:54:07.579Z,34.40
2022-07-26T10:59:13.809Z,34.08
2022-07-26T11:04:21.292Z,34.54
2022-07-26T11:09:35.169Z,34.96
2022-07-26T11:14:45.055Z,34.34
2022-07-26T11:19:54.327Z,34.13
2022-07-26T11:25:01.234Z,35.01
2022-07-26T11:30:09.638Z,34.63
2022-07-26T11:35:15.775Z,33.75
2022-07-26T11:40:46.024Z,34.13
2022-07-26T11:45:54.956Z,35.40
2022-07-26T11:51:12.896Z,35.48
2022-07-26T11:56:20.693Z,35.66
2022-07-26T12:01:28.596Z,36.49
2022-07-26T12:06:40.957Z,37.63
2022-07-26T12:11:48.154Z,38.55
2022-07-26T12:16:54.967Z,38.99
2022-07-26T12:22:12.375Z,39.44
2022-07-26T12:27:21.323Z,41.04
2022-07-26T12:32:34.237Z,42.68
2022-07-26T12:37:54.006Z,44.36
2022-07-26T12:43:02.785Z,46.32
2022-07-26T12:48:11.994Z,51.50
2022-07-26T12:53:18.226Z,55.49
2022-07-26T12:58:24.111Z,58.52
2022-07-26T13:03:30.031Z,60.30
2022-07-26T13:08:36.029Z,62.14
2022-07-26T13:13:42.214Z,63.47
2022-07-26T13:18:48.258Z,65.80
2022-07-26T13:23:54.806Z,67.37
2022-07-26T13:29:01.854Z,69.23
2022-07-26T13:34:08.322Z,70.60
2022-07-26T13:39:15.111Z,72.04
2022-07-26T13:44:21.016Z,72.95
2022-07-26T13:49:27.122Z,73.99
2022-07-26T13:54:34.761Z,75.03
2022-07-26T13:59:40.906Z,75.96
2022-07-26T14:04:46.798Z,76.09
2022-07-26T14:09:52.594Z,76.65
2022-07-26T14:14:58.635Z,76.81
2022-07-26T14:20:06.320Z,76.76
2022-07-26T14:25:12.689Z,76.67
2022-07-26T14:30:19.078Z,76.44
2022-07-26T14:35:25.167Z,76.36
2022-07-26T14:40:31.072Z,75.84
2022-07-26T14:45:37.109Z,74.72
2022-07-26T14:51:08.170Z,73.70
2022-07-26T14:56:11.172Z,73.02
2022-07-26T15:01:17.893Z,73.10
2022-07-26T15:06:23.830Z,72.79
2022-07-26T15:11:29.940Z,73.01
2022-07-26T15:16:36.078Z,72.87
2022-07-26T15:21:42.117Z,73.08
2022-07-26T15:26:48.075Z,73.07
2022-07-26T15:31:54.022Z,72.23
2022-07-26T15:37:01.016Z,72.21
2022-07-26T15:42:09.253Z,72.64
2022-07-26T15:47:36.912Z,72.58
2022-07-26T15:52:44.706Z,72.64
2022-07-26T15:57:50.477Z,72.57
2022-07-26T16:02:57.401Z,72.55
2022-07-26T16:08:03.371Z,72.11
2022-07-26T16:13:09.311Z,71.98
2022-07-26T16:18:15.503Z,72.09
2022-07-26T16:23:21.451Z,72.09
2022-07-26T16:28:27.172Z,72.27
2022-07-26T16:33:33.123Z,72.83
2022-07-26T16:38:39.116Z,72.98
2022-07-26T16:43:45.065Z,73.66
2022-07-26T16:48:51.005Z,74.06
2022-07-26T16:53:56.808Z,74.77
2022-07-26T16:59:04.681Z,75.48
2022-07-26T17:04:12.606Z,76.31
2022-07-26T17:09:18.863Z,77.00
2022-07-26T17:14:24.935Z,77.71
2022-07-26T17:19:30.739Z,78.18
2022-07-26T17:24:36.449Z,79.14
2022-07-26T17:29:42.809Z,79.89
2022-07-26T17:34:48.667Z,80.03
2022-07-26T17:39:54.622Z,80.15
2022-07-26T17:45:03.551Z,80.62
2022-07-26T17:55:36.731Z,81.41
2022-07-26T18:00:42.839Z,81.62
2022-07-26T18:05:48.790Z,82.02
2022-07-26T18:10:54.775Z,82.14
2022-07-26T18:16:05.525Z,82.78
2022-07-26T18:21:12.180Z,83.25
2022-07-26T18:26:18.115Z,83.73
2022-07-26T18:31:24.282Z,83.71
2022-07-26T18:36:30.488Z,83.80
2022-07-26T18:41:36.235Z,84.06
2022-07-26T18:46:52.294Z,84.40
2022-07-26T18:52:00.720Z,84.66
2022-07-26T18:57:11.945Z,84.94
2022-07-26T19:02:17.687Z,84.95
2022-07-26T19:07:23.810Z,85.14
2022-07-26T19:12:30.014Z,85.42
2022-07-26T19:17:35.908Z,85.67
2022-07-26T19:22:44.091Z,85.78
2022-07-26T19:27:50.036Z,85.96
2022-07-26T19:32:55.931Z,85.71
2022-07-26T19:38:02.369Z,85.88
2022-07-26T19:43:08.215Z,85.80
2022-07-26T19:48:14.483Z,85.71
2022-07-26T19:53:20.647Z,85.66
2022-07-26T19:58:27.018Z,85.67
2022-07-26T20:03:33.898Z,86.05
2022-07-26T20:08:40.424Z,86.18
2022-07-26T20:13:46.315Z,86.27
2022-07-26T20:18:52.148Z,86.48
2022-07-26T20:23:58.525Z,86.82
2022-07-26T20:29:04.770Z,87.24
2022-07-26T20:34:10.860Z,87.47
2022-07-26T20:39:16.936Z,87.53
2022-07-26T20:44:26.322Z,87.60
2022-07-26T20:49:34.013Z,87.93
2022-07-26T20:54:40.037Z,88.05
2022-07-26T20:59:46.408Z,88.47
2022-07-26T21:04:52.410Z,88.62
2022-07-26T21:09:58.360Z,88.99
2022-07-26T21:15:04.626Z,89.01
2022-07-26T21:20:11.221Z,89.37
2022-07-26T21:25:17.330Z,89.55
2022-07-26T21:30:23.355Z,89.68
2022-07-26T21:35:29.183Z,90.14
2022-07-26T21:40:35.705Z,90.02
2022-07-26T21:45:41.675Z,90.03
2022-07-26T21:50:47.528Z,90.30
2022-07-26T21:55:53.407Z,90.17
2022-07-26T22:01:06.091Z,90.30
2022-07-26T22:06:13.075Z,90.42
2022-07-26T22:11:19.153Z,90.51
2022-07-26T22:16:26.049Z,90.99
2022-07-26T22:21:32.157Z,90.78
2022-07-26T22:26:37.961Z,90.22
2022-07-26T22:31:43.954Z,90.40
2022-07-26T22:36:49.773Z,90.42
2022-07-26T22:42:14.335Z,90.61
2022-07-26T22:47:20.495Z,90.57
2022-07-26T22:52:26.519Z,90.82
2022-07-26T22:57:32.273Z,90.95
2022-07-26T23:02:39.423Z,90.83
2022-07-26T23:07:47.882Z,90.81
2022-07-26T23:12:55.420Z,90.95
2022-07-26T23:18:01.551Z,90.96
2022-07-26T23:23:07.388Z,90.95
2022-07-26T23:28:35.173Z,91.19
2022-07-26T23:33:51.415Z,91.17
2022-07-26T23:39:01.228Z,91.20
2022-07-26T23:44:07.038Z,91.83
2022-07-26T23:49:13.306Z,91.27
2022-07-26T23:54:19.428Z,91.07
2022-07-26T23:59:25.505Z,91.14
